JBU1611 KFLL-TNCA
Flight info
| Callsign | JBU1611 |
|---|---|
| Flight time | 2h 20m |
| Altitude | 37000 |
| Route | REGAE2 URSUS UP406 BILSI DCT ALTIB UL795 GELOG DCT DIBOK DIBOK2A |
| Aircraft | A320/M-SDE3FGHIRWY/LB1 |
Departure
| Time | 2026-05-05 23:07 |
|---|---|
| Airport | Fort Lauderdale Hollywood International Airport (KFLL) |
Arrival
| Time | 2026-05-06 01:28 |
|---|---|
| Airport | Queen Beatrix International Airport (TNCA) |
| Time | Latitude | Longitude | Altitude | Speed | Heading |
|---|---|---|---|---|---|
| 2026-05-05 22:24 | 26.07149 | -80.14688 | 16 ft | 0 kts | 176° |
| 2026-05-05 22:56 | 26.07173 | -80.14689 | 18 ft | 4 kts | 187° |
| 2026-05-05 22:56 | 26.07197 | -80.14681 | 16 ft | 4 kts | 229° |
| 2026-05-05 22:57 | 26.07203 | -80.14667 | 19 ft | 0 kts | 278° |
| 2026-05-05 22:59 | 26.07204 | -80.14675 | 16 ft | 2 kts | 279° |
| 2026-05-05 23:00 | 26.07230 | -80.14749 | 17 ft | 9 kts | 296° |
| 2026-05-05 23:00 | 26.07261 | -80.14819 | 16 ft | 11 kts | 297° |
| 2026-05-05 23:00 | 26.07334 | -80.14854 | 16 ft | 14 kts | 357° |
| 2026-05-05 23:01 | 26.07397 | -80.14939 | 16 ft | 17 kts | 323° |
| 2026-05-05 23:01 | 26.07481 | -80.15036 | 17 ft | 18 kts | 310° |
| 2026-05-05 23:01 | 26.07490 | -80.15164 | 16 ft | 17 kts | 270° |
| 2026-05-05 23:01 | 26.07490 | -80.15292 | 15 ft | 17 kts | 270° |
| 2026-05-05 23:02 | 26.07491 | -80.15420 | 15 ft | 16 kts | 270° |
| 2026-05-05 23:02 | 26.07492 | -80.15545 | 16 ft | 16 kts | 269° |
| 2026-05-05 23:02 | 26.07492 | -80.15670 | 16 ft | 16 kts | 271° |
| 2026-05-05 23:02 | 26.07493 | -80.15799 | 16 ft | 17 kts | 269° |
| 2026-05-05 23:03 | 26.07494 | -80.15934 | 16 ft | 18 kts | 270° |
| 2026-05-05 23:03 | 26.07495 | -80.16079 | 16 ft | 19 kts | 270° |
| 2026-05-05 23:03 | 26.07495 | -80.16235 | 16 ft | 20 kts | 270° |
| 2026-05-05 23:03 | 26.07497 | -80.16376 | 16 ft | 14 kts | 270° |
| 2026-05-05 23:04 | 26.07497 | -80.16487 | 16 ft | 15 kts | 270° |
| 2026-05-05 23:04 | 26.07499 | -80.16610 | 16 ft | 16 kts | 281° |
| 2026-05-05 23:04 | 26.07567 | -80.16645 | 16 ft | 10 kts | 355° |
| 2026-05-05 23:04 | 26.07582 | -80.16644 | 18 ft | 0 kts | 4° |
| 2026-05-05 23:05 | 26.07583 | -80.16644 | 18 ft | 0 kts | 4° |
| 2026-05-05 23:05 | 26.07590 | -80.16644 | 17 ft | 2 kts | 4° |
| 2026-05-05 23:06 | 26.07606 | -80.16643 | 17 ft | 3 kts | 1° |
| 2026-05-05 23:06 | 26.07651 | -80.16642 | 17 ft | 9 kts | 360° |
| 2026-05-05 23:06 | 26.07693 | -80.16616 | 18 ft | 4 kts | 92° |
| 2026-05-05 23:06 | 26.07696 | -80.16498 | 19 ft | 32 kts | 90° |
| 2026-05-05 23:07 | 26.07693 | -80.16000 | 21 ft | 94 kts | 91° |
| 2026-05-05 23:07 | 26.07688 | -80.15082 | 16 ft | 140 kts | 90° |
| 2026-05-05 23:07 | 26.07674 | -80.13892 | 305 ft | 157 kts | 90° |
| 2026-05-05 23:07 | 26.07676 | -80.12688 | 957 ft | 154 kts | 86° |
| 2026-05-05 23:08 | 26.07698 | -80.11482 | 1414 ft | 163 kts | 87° |
| 2026-05-05 23:08 | 26.07728 | -80.10177 | 1815 ft | 175 kts | 86° |
| 2026-05-05 23:08 | 26.07757 | -80.08763 | 2167 ft | 190 kts | 86° |
| 2026-05-05 23:08 | 26.07786 | -80.07227 | 2513 ft | 207 kts | 86° |
| 2026-05-05 23:09 | 26.07811 | -80.05565 | 2920 ft | 225 kts | 88° |
| 2026-05-05 23:09 | 26.07830 | -80.03748 | 3305 ft | 247 kts | 88° |
| 2026-05-05 23:09 | 26.07844 | -80.01754 | 3777 ft | 267 kts | 88° |
| 2026-05-05 23:09 | 26.07849 | -79.99640 | 4448 ft | 279 kts | 89° |
| 2026-05-05 23:10 | 26.07832 | -79.97453 | 5207 ft | 285 kts | 90° |
| 2026-05-05 23:10 | 26.07803 | -79.95236 | 6015 ft | 289 kts | 90° |
| 2026-05-05 23:10 | 26.07772 | -79.92986 | 6793 ft | 293 kts | 90° |
| 2026-05-05 23:10 | 26.07743 | -79.90705 | 7523 ft | 297 kts | 90° |
| 2026-05-05 23:11 | 26.07716 | -79.88392 | 8266 ft | 301 kts | 90° |
| 2026-05-05 23:11 | 26.07689 | -79.86046 | 8986 ft | 306 kts | 90° |
| 2026-05-05 23:11 | 26.07647 | -79.83664 | 9661 ft | 311 kts | 94° |
| 2026-05-05 23:11 | 26.07268 | -79.81282 | 10264 ft | 317 kts | 104° |
| 2026-05-05 23:12 | 26.06730 | -79.78810 | 10433 ft | 340 kts | 104° |
| 2026-05-05 23:12 | 26.06158 | -79.76173 | 10559 ft | 362 kts | 104° |
| 2026-05-05 23:12 | 26.05556 | -79.73386 | 10780 ft | 377 kts | 104° |
| 2026-05-05 23:12 | 26.04940 | -79.70526 | 11269 ft | 383 kts | 103° |
| 2026-05-05 23:13 | 26.04319 | -79.67636 | 11838 ft | 386 kts | 103° |
| 2026-05-05 23:13 | 26.03691 | -79.64722 | 12403 ft | 389 kts | 103° |
| 2026-05-05 23:13 | 26.03030 | -79.61791 | 12975 ft | 393 kts | 104° |
| 2026-05-05 23:13 | 26.02329 | -79.58846 | 13546 ft | 396 kts | 104° |
| 2026-05-05 23:14 | 26.01588 | -79.55887 | 14070 ft | 399 kts | 108° |
| 2026-05-05 23:14 | 26.00422 | -79.53080 | 14529 ft | 403 kts | 122° |
| 2026-05-05 23:14 | 25.98687 | -79.50633 | 14989 ft | 405 kts | 136° |
| 2026-05-05 23:14 | 25.96490 | -79.48678 | 15450 ft | 406 kts | 150° |
| 2026-05-05 23:15 | 25.93945 | -79.47337 | 15903 ft | 406 kts | 164° |
| 2026-05-05 23:15 | 25.91235 | -79.46628 | 16356 ft | 407 kts | 172° |
| 2026-05-05 23:15 | 25.88440 | -79.46087 | 16825 ft | 408 kts | 177° |
| 2026-05-05 23:15 | 25.85609 | -79.46039 | 17285 ft | 407 kts | 188° |
| 2026-05-05 23:16 | 25.82831 | -79.46587 | 17747 ft | 406 kts | 199° |
| 2026-05-05 23:16 | 25.80208 | -79.47708 | 18205 ft | 404 kts | 211° |
| 2026-05-05 23:16 | 25.77805 | -79.49319 | 18612 ft | 404 kts | 217° |
| 2026-05-05 23:16 | 25.75452 | -79.51037 | 19032 ft | 406 kts | 217° |
| 2026-05-05 23:17 | 25.73080 | -79.52758 | 19450 ft | 409 kts | 217° |
| 2026-05-05 23:17 | 25.70690 | -79.54482 | 19885 ft | 411 kts | 217° |
| 2026-05-05 23:17 | 25.68288 | -79.56217 | 20297 ft | 413 kts | 219° |
| 2026-05-05 23:17 | 25.66010 | -79.58143 | 20695 ft | 413 kts | 223° |
| 2026-05-05 23:18 | 25.63755 | -79.60123 | 21101 ft | 415 kts | 223° |
| 2026-05-05 23:18 | 25.61488 | -79.62113 | 21501 ft | 417 kts | 223° |
| 2026-05-05 23:18 | 25.59209 | -79.64110 | 21895 ft | 419 kts | 223° |
| 2026-05-05 23:18 | 25.56918 | -79.66119 | 22243 ft | 421 kts | 223° |
| 2026-05-05 23:19 | 25.54614 | -79.68137 | 22607 ft | 424 kts | 223° |
| 2026-05-05 23:19 | 25.52290 | -79.70165 | 22961 ft | 426 kts | 223° |
| 2026-05-05 23:19 | 25.49958 | -79.72199 | 23312 ft | 428 kts | 223° |
| 2026-05-05 23:19 | 25.47617 | -79.74244 | 23646 ft | 430 kts | 223° |
| 2026-05-05 23:20 | 25.45265 | -79.76298 | 23927 ft | 432 kts | 223° |
| 2026-05-05 23:20 | 25.42902 | -79.78361 | 24205 ft | 434 kts | 223° |
| 2026-05-05 23:20 | 25.40480 | -79.80369 | 24470 ft | 440 kts | 217° |
| 2026-05-05 23:20 | 25.37724 | -79.81916 | 24716 ft | 450 kts | 205° |
| 2026-05-05 23:21 | 25.34666 | -79.82818 | 24976 ft | 461 kts | 193° |
| 2026-05-05 23:21 | 25.31433 | -79.83000 | 25240 ft | 471 kts | 180° |
| 2026-05-05 23:21 | 25.28166 | -79.82406 | 25486 ft | 480 kts | 168° |
| 2026-05-05 23:21 | 25.24948 | -79.81376 | 25764 ft | 482 kts | 167° |
| 2026-05-05 23:22 | 25.21720 | -79.80336 | 26042 ft | 484 kts | 167° |
| 2026-05-05 23:22 | 25.18478 | -79.79294 | 26323 ft | 486 kts | 167° |
| 2026-05-05 23:22 | 25.15222 | -79.78252 | 26600 ft | 488 kts | 168° |
| 2026-05-05 23:22 | 25.11953 | -79.77207 | 26867 ft | 490 kts | 168° |
| 2026-05-05 23:23 | 25.08669 | -79.76161 | 27148 ft | 492 kts | 168° |
| 2026-05-05 23:23 | 25.05371 | -79.75114 | 27419 ft | 494 kts | 168° |
| 2026-05-05 23:23 | 25.02069 | -79.74064 | 27799 ft | 494 kts | 168° |
| 2026-05-05 23:23 | 24.98772 | -79.73016 | 28206 ft | 493 kts | 168° |
| 2026-05-05 23:24 | 24.95480 | -79.71971 | 28595 ft | 492 kts | 168° |
| 2026-05-05 23:24 | 24.92193 | -79.70923 | 29008 ft | 492 kts | 167° |
| 2026-05-05 23:24 | 24.88971 | -79.69599 | 29400 ft | 496 kts | 158° |
| 2026-05-05 23:24 | 24.85943 | -79.67761 | 29820 ft | 499 kts | 149° |
| 2026-05-05 23:25 | 24.83066 | -79.65717 | 30205 ft | 499 kts | 149° |
| 2026-05-05 23:25 | 24.80150 | -79.63651 | 30552 ft | 498 kts | 150° |
| 2026-05-05 23:25 | 24.77230 | -79.61593 | 30903 ft | 499 kts | 150° |
| 2026-05-05 23:25 | 24.74307 | -79.59539 | 31248 ft | 499 kts | 150° |
| 2026-05-05 23:26 | 24.71383 | -79.57486 | 31596 ft | 499 kts | 150° |
| 2026-05-05 23:26 | 24.68457 | -79.55433 | 31949 ft | 499 kts | 149° |
| 2026-05-05 23:26 | 24.65532 | -79.53379 | 32305 ft | 499 kts | 149° |
| 2026-05-05 23:26 | 24.62607 | -79.51323 | 32655 ft | 499 kts | 149° |
| 2026-05-05 23:27 | 24.59687 | -79.49268 | 33033 ft | 498 kts | 149° |
| 2026-05-05 23:27 | 24.56766 | -79.47215 | 33397 ft | 499 kts | 149° |
| 2026-05-05 23:27 | 24.54788 | -79.45827 | 33642 ft | 499 kts | 149° |
| 2026-05-05 23:27 | 24.50918 | -79.43120 | 34101 ft | 499 kts | 149° |
| 2026-05-05 23:28 | 24.48937 | -79.41738 | 34309 ft | 499 kts | 149° |
| 2026-05-05 23:28 | 24.46009 | -79.39695 | 34588 ft | 499 kts | 149° |
| 2026-05-05 23:28 | 24.43082 | -79.37648 | 34862 ft | 499 kts | 149° |
| 2026-05-05 23:28 | 24.40154 | -79.35600 | 35127 ft | 499 kts | 149° |
| 2026-05-05 23:29 | 24.37225 | -79.33551 | 35408 ft | 499 kts | 149° |
| 2026-05-05 23:29 | 24.34297 | -79.31501 | 35662 ft | 500 kts | 149° |
| 2026-05-05 23:29 | 24.31367 | -79.29452 | 35921 ft | 500 kts | 149° |
| 2026-05-05 23:29 | 24.28439 | -79.27399 | 36177 ft | 500 kts | 148° |
| 2026-05-05 23:30 | 24.25518 | -79.25319 | 36427 ft | 500 kts | 148° |
| 2026-05-05 23:30 | 24.22650 | -79.23254 | 36667 ft | 500 kts | 148° |
| 2026-05-05 23:30 | 24.19748 | -79.21152 | 36903 ft | 500 kts | 148° |
| 2026-05-05 23:30 | 24.16841 | -79.19046 | 37019 ft | 502 kts | 148° |
| 2026-05-05 23:31 | 24.10946 | -79.14792 | 37033 ft | 512 kts | 148° |
| 2026-05-05 23:31 | 24.04975 | -79.10519 | 37032 ft | 514 kts | 148° |
| 2026-05-05 23:32 | 23.98643 | -79.07022 | 37012 ft | 508 kts | 165° |
| 2026-05-05 23:32 | 23.91804 | -79.05358 | 37036 ft | 503 kts | 174° |
| 2026-05-05 23:33 | 23.84913 | -79.03999 | 37030 ft | 503 kts | 174° |
| 2026-05-05 23:33 | 23.78023 | -79.02634 | 37035 ft | 504 kts | 174° |
| 2026-05-05 23:34 | 23.71129 | -79.01261 | 37038 ft | 504 kts | 174° |
| 2026-05-05 23:34 | 23.64234 | -78.99895 | 37030 ft | 503 kts | 173° |
| 2026-05-05 23:35 | 23.57343 | -78.98529 | 37040 ft | 503 kts | 173° |
| 2026-05-05 23:35 | 23.50453 | -78.97175 | 37044 ft | 503 kts | 173° |
| 2026-05-05 23:36 | 23.43609 | -78.95831 | 37048 ft | 503 kts | 173° |
| 2026-05-05 23:36 | 23.36719 | -78.94477 | 37049 ft | 503 kts | 173° |
| 2026-05-05 23:37 | 23.29825 | -78.93122 | 37045 ft | 503 kts | 173° |
| 2026-05-05 23:37 | 23.22960 | -78.91656 | 37050 ft | 505 kts | 166° |
| 2026-05-05 23:38 | 23.16537 | -78.88549 | 37047 ft | 509 kts | 147° |
| 2026-05-05 23:38 | 23.10867 | -78.83938 | 37044 ft | 509 kts | 143° |
| 2026-05-05 23:39 | 23.05235 | -78.79263 | 37043 ft | 510 kts | 143° |
| 2026-05-05 23:39 | 22.99587 | -78.74605 | 37038 ft | 510 kts | 143° |
| 2026-05-05 23:40 | 22.93938 | -78.69943 | 37054 ft | 510 kts | 143° |
| 2026-05-05 23:40 | 22.88306 | -78.65272 | 37062 ft | 510 kts | 142° |
| 2026-05-05 23:41 | 22.82666 | -78.60608 | 37058 ft | 510 kts | 143° |
| 2026-05-05 23:41 | 22.77020 | -78.55951 | 37061 ft | 510 kts | 143° |
| 2026-05-05 23:42 | 22.71382 | -78.51278 | 37061 ft | 510 kts | 142° |
| 2026-05-05 23:42 | 22.65763 | -78.46581 | 37069 ft | 510 kts | 142° |
| 2026-05-05 23:43 | 22.60143 | -78.41903 | 37077 ft | 509 kts | 142° |
| 2026-05-05 23:43 | 22.54526 | -78.37242 | 37079 ft | 509 kts | 142° |
| 2026-05-05 23:44 | 22.48950 | -78.32611 | 37069 ft | 508 kts | 142° |
| 2026-05-05 23:44 | 22.43358 | -78.27944 | 37061 ft | 508 kts | 142° |
| 2026-05-05 23:45 | 22.37769 | -78.23280 | 37062 ft | 508 kts | 142° |
| 2026-05-05 23:45 | 22.32180 | -78.18624 | 37050 ft | 507 kts | 142° |
| 2026-05-05 23:46 | 22.26597 | -78.13981 | 37068 ft | 506 kts | 142° |
| 2026-05-05 23:46 | 22.21014 | -78.09351 | 37060 ft | 506 kts | 142° |
| 2026-05-05 23:47 | 22.15433 | -78.04726 | 37069 ft | 506 kts | 142° |
| 2026-05-05 23:47 | 22.09847 | -78.00100 | 37063 ft | 506 kts | 142° |
| 2026-05-05 23:48 | 22.04267 | -77.95478 | 37073 ft | 506 kts | 143° |
| 2026-05-05 23:48 | 21.98686 | -77.90858 | 37067 ft | 506 kts | 142° |
| 2026-05-05 23:49 | 21.93104 | -77.86247 | 37070 ft | 505 kts | 142° |
| 2026-05-05 23:49 | 21.87523 | -77.81646 | 37070 ft | 505 kts | 142° |
| 2026-05-05 23:50 | 21.81928 | -77.77070 | 37067 ft | 505 kts | 142° |
| 2026-05-05 23:50 | 21.76325 | -77.72502 | 37070 ft | 505 kts | 142° |
| 2026-05-05 23:51 | 21.70737 | -77.67934 | 37071 ft | 505 kts | 142° |
| 2026-05-05 23:51 | 21.65151 | -77.63367 | 37054 ft | 504 kts | 142° |
| 2026-05-05 23:52 | 21.59571 | -77.58820 | 37075 ft | 503 kts | 142° |
| 2026-05-05 23:52 | 21.53998 | -77.54293 | 37068 ft | 502 kts | 142° |
| 2026-05-05 23:53 | 21.48432 | -77.49769 | 37053 ft | 502 kts | 142° |
| 2026-05-05 23:53 | 21.42872 | -77.45246 | 37054 ft | 501 kts | 142° |
| 2026-05-05 23:54 | 21.37304 | -77.40723 | 37052 ft | 502 kts | 142° |
| 2026-05-05 23:54 | 21.31771 | -77.36241 | 37050 ft | 502 kts | 142° |
| 2026-05-05 23:55 | 21.26204 | -77.31748 | 37066 ft | 500 kts | 143° |
| 2026-05-05 23:55 | 21.20659 | -77.27281 | 37067 ft | 498 kts | 142° |
| 2026-05-05 23:56 | 21.15143 | -77.22822 | 37067 ft | 496 kts | 142° |
| 2026-05-05 23:56 | 21.09632 | -77.18370 | 37042 ft | 497 kts | 143° |
| 2026-05-05 23:57 | 21.04102 | -77.13923 | 37033 ft | 498 kts | 143° |
| 2026-05-05 23:57 | 20.98562 | -77.09464 | 37035 ft | 498 kts | 143° |
| 2026-05-05 23:58 | 20.93019 | -77.04999 | 37028 ft | 499 kts | 143° |
| 2026-05-05 23:58 | 20.87474 | -77.00526 | 37032 ft | 500 kts | 143° |
| 2026-05-05 23:59 | 20.81909 | -76.96070 | 37041 ft | 500 kts | 143° |
| 2026-05-05 23:59 | 20.76333 | -76.91616 | 37035 ft | 500 kts | 143° |
| 2026-05-06 00:00 | 20.70768 | -76.87159 | 37036 ft | 500 kts | 143° |
| 2026-05-06 00:00 | 20.65201 | -76.82700 | 37019 ft | 501 kts | 143° |
| 2026-05-06 00:01 | 20.59620 | -76.78239 | 37019 ft | 501 kts | 143° |
| 2026-05-06 00:01 | 20.54043 | -76.73786 | 37037 ft | 500 kts | 143° |
| 2026-05-06 00:02 | 20.48472 | -76.69344 | 37044 ft | 500 kts | 143° |
| 2026-05-06 00:02 | 20.42911 | -76.64907 | 37046 ft | 499 kts | 143° |
| 2026-05-06 00:03 | 20.37349 | -76.60475 | 37036 ft | 499 kts | 143° |
| 2026-05-06 00:03 | 20.31801 | -76.56042 | 37045 ft | 498 kts | 143° |
| 2026-05-06 00:04 | 20.26254 | -76.51609 | 37046 ft | 498 kts | 143° |
| 2026-05-06 00:04 | 20.20717 | -76.47198 | 37056 ft | 497 kts | 143° |
| 2026-05-06 00:05 | 20.12426 | -76.40590 | 37055 ft | 496 kts | 143° |
| 2026-05-06 00:06 | 20.06904 | -76.36202 | 37047 ft | 495 kts | 143° |
| 2026-05-06 00:06 | 20.01372 | -76.31814 | 37048 ft | 496 kts | 143° |
| 2026-05-06 00:07 | 19.95875 | -76.27455 | 37049 ft | 496 kts | 143° |
| 2026-05-06 00:07 | 19.90347 | -76.23070 | 37056 ft | 495 kts | 143° |
| 2026-05-06 00:08 | 19.84842 | -76.18709 | 37066 ft | 492 kts | 143° |
| 2026-05-06 00:08 | 19.79362 | -76.14372 | 37066 ft | 490 kts | 143° |
| 2026-05-06 00:09 | 19.73893 | -76.10046 | 37051 ft | 490 kts | 143° |
| 2026-05-06 00:09 | 19.68422 | -76.05717 | 37048 ft | 491 kts | 143° |
| 2026-05-06 00:10 | 19.62943 | -76.01389 | 37041 ft | 491 kts | 143° |
| 2026-05-06 00:10 | 19.57458 | -75.97064 | 37035 ft | 491 kts | 143° |
| 2026-05-06 00:11 | 19.51978 | -75.92746 | 37048 ft | 490 kts | 143° |
| 2026-05-06 00:11 | 19.46508 | -75.88440 | 37054 ft | 489 kts | 143° |
| 2026-05-06 00:12 | 19.41040 | -75.84138 | 37059 ft | 489 kts | 143° |
| 2026-05-06 00:12 | 19.35584 | -75.79846 | 37054 ft | 489 kts | 143° |
| 2026-05-06 00:13 | 19.30120 | -75.75556 | 37043 ft | 489 kts | 143° |
| 2026-05-06 00:13 | 19.24660 | -75.71263 | 37044 ft | 489 kts | 143° |
| 2026-05-06 00:14 | 19.19228 | -75.67006 | 37050 ft | 489 kts | 143° |
| 2026-05-06 00:14 | 19.13757 | -75.62723 | 37051 ft | 489 kts | 143° |
| 2026-05-06 00:15 | 19.08287 | -75.58444 | 37060 ft | 489 kts | 143° |
| 2026-05-06 00:15 | 19.02815 | -75.54175 | 37057 ft | 489 kts | 143° |
| 2026-05-06 00:16 | 18.97343 | -75.49896 | 37064 ft | 489 kts | 143° |
| 2026-05-06 00:16 | 18.91878 | -75.45623 | 37069 ft | 489 kts | 143° |
| 2026-05-06 00:17 | 18.87334 | -75.42082 | 37050 ft | 489 kts | 143° |
| 2026-05-06 00:17 | 18.81867 | -75.37818 | 37051 ft | 489 kts | 143° |
| 2026-05-06 00:18 | 18.76396 | -75.33558 | 37057 ft | 489 kts | 143° |
| 2026-05-06 00:18 | 18.70919 | -75.29296 | 37059 ft | 489 kts | 143° |
| 2026-05-06 00:19 | 18.65451 | -75.25035 | 37048 ft | 489 kts | 143° |
| 2026-05-06 00:19 | 18.59979 | -75.20781 | 37056 ft | 489 kts | 143° |
| 2026-05-06 00:20 | 18.54487 | -75.16558 | 37062 ft | 489 kts | 145° |
| 2026-05-06 00:20 | 18.48869 | -75.12534 | 37053 ft | 488 kts | 147° |
| 2026-05-06 00:21 | 18.43199 | -75.08614 | 37059 ft | 487 kts | 147° |
| 2026-05-06 00:21 | 18.37551 | -75.04680 | 37055 ft | 486 kts | 147° |
| 2026-05-06 00:22 | 18.31941 | -75.00706 | 37049 ft | 486 kts | 146° |
| 2026-05-06 00:22 | 18.26339 | -74.96721 | 37049 ft | 485 kts | 146° |
| 2026-05-06 00:23 | 18.20734 | -74.92765 | 37048 ft | 485 kts | 147° |
| 2026-05-06 00:23 | 18.15126 | -74.88815 | 37038 ft | 485 kts | 147° |
| 2026-05-06 00:24 | 18.09534 | -74.84867 | 37049 ft | 484 kts | 147° |
| 2026-05-06 00:24 | 18.03947 | -74.80932 | 37050 ft | 483 kts | 147° |
| 2026-05-06 00:25 | 17.98359 | -74.77007 | 37051 ft | 483 kts | 147° |
| 2026-05-06 00:25 | 17.92769 | -74.73084 | 37047 ft | 483 kts | 147° |
| 2026-05-06 00:26 | 17.87192 | -74.69162 | 37046 ft | 482 kts | 147° |
| 2026-05-06 00:26 | 17.81650 | -74.65276 | 37042 ft | 482 kts | 147° |
| 2026-05-06 00:27 | 17.76074 | -74.61368 | 37036 ft | 482 kts | 147° |
| 2026-05-06 00:27 | 17.70501 | -74.57462 | 37039 ft | 482 kts | 147° |
| 2026-05-06 00:28 | 17.64934 | -74.53556 | 37040 ft | 481 kts | 147° |
| 2026-05-06 00:28 | 17.59366 | -74.49656 | 37044 ft | 481 kts | 147° |
| 2026-05-06 00:29 | 17.53792 | -74.45755 | 37041 ft | 481 kts | 147° |
| 2026-05-06 00:29 | 17.48221 | -74.41863 | 37037 ft | 481 kts | 147° |
| 2026-05-06 00:30 | 17.42648 | -74.37976 | 37040 ft | 481 kts | 147° |
| 2026-05-06 00:30 | 17.37077 | -74.34091 | 37038 ft | 481 kts | 148° |
| 2026-05-06 00:31 | 17.31507 | -74.30206 | 37042 ft | 481 kts | 148° |
| 2026-05-06 00:31 | 17.25935 | -74.26326 | 37041 ft | 481 kts | 148° |
| 2026-05-06 00:32 | 17.20367 | -74.22448 | 37035 ft | 481 kts | 148° |
| 2026-05-06 00:32 | 17.14798 | -74.18563 | 37034 ft | 481 kts | 148° |
| 2026-05-06 00:33 | 17.09230 | -74.14693 | 37014 ft | 481 kts | 148° |
| 2026-05-06 00:33 | 17.03696 | -74.10856 | 37016 ft | 481 kts | 148° |
| 2026-05-06 00:34 | 16.98123 | -74.06994 | 37018 ft | 481 kts | 148° |
| 2026-05-06 00:34 | 16.92548 | -74.03135 | 37017 ft | 481 kts | 148° |
| 2026-05-06 00:35 | 16.86977 | -73.99266 | 37022 ft | 481 kts | 148° |
| 2026-05-06 00:35 | 16.81400 | -73.95393 | 37020 ft | 481 kts | 148° |
| 2026-05-06 00:36 | 16.75825 | -73.91530 | 37021 ft | 481 kts | 148° |
| 2026-05-06 00:36 | 16.70246 | -73.87674 | 37016 ft | 481 kts | 148° |
| 2026-05-06 00:37 | 16.64665 | -73.83822 | 37019 ft | 481 kts | 148° |
| 2026-05-06 00:37 | 16.59081 | -73.79972 | 37024 ft | 481 kts | 148° |
| 2026-05-06 00:38 | 16.53496 | -73.76122 | 37021 ft | 481 kts | 148° |
| 2026-05-06 00:38 | 16.47913 | -73.72265 | 37022 ft | 482 kts | 148° |
| 2026-05-06 00:39 | 16.42362 | -73.68426 | 37022 ft | 482 kts | 148° |
| 2026-05-06 00:39 | 16.36787 | -73.64552 | 37017 ft | 482 kts | 145° |
| 2026-05-06 00:40 | 16.31730 | -73.59955 | 37019 ft | 483 kts | 139° |
| 2026-05-06 00:40 | 16.26768 | -73.55240 | 37019 ft | 483 kts | 139° |
| 2026-05-06 00:41 | 16.21809 | -73.50523 | 37017 ft | 483 kts | 139° |
| 2026-05-06 00:41 | 16.16842 | -73.45813 | 37018 ft | 483 kts | 139° |
| 2026-05-06 00:42 | 16.11874 | -73.41102 | 37020 ft | 483 kts | 139° |
| 2026-05-06 00:42 | 16.06898 | -73.36388 | 37018 ft | 484 kts | 139° |
| 2026-05-06 00:43 | 16.01927 | -73.31676 | 37012 ft | 484 kts | 139° |
| 2026-05-06 00:43 | 15.96958 | -73.26970 | 37025 ft | 483 kts | 139° |
| 2026-05-06 00:44 | 15.91988 | -73.22270 | 37024 ft | 483 kts | 139° |
| 2026-05-06 00:44 | 15.87054 | -73.17606 | 37025 ft | 483 kts | 139° |
| 2026-05-06 00:45 | 15.82050 | -73.12877 | 37025 ft | 483 kts | 139° |
| 2026-05-06 00:45 | 15.77117 | -73.08230 | 37023 ft | 482 kts | 139° |
| 2026-05-06 00:46 | 15.72151 | -73.03547 | 37020 ft | 482 kts | 139° |
| 2026-05-06 00:46 | 15.67191 | -72.98864 | 37020 ft | 482 kts | 139° |
| 2026-05-06 00:47 | 15.62224 | -72.94189 | 37024 ft | 481 kts | 140° |
| 2026-05-06 00:47 | 15.57268 | -72.89530 | 37023 ft | 481 kts | 140° |
| 2026-05-06 00:48 | 15.52323 | -72.84872 | 37021 ft | 480 kts | 140° |
| 2026-05-06 00:48 | 15.47375 | -72.80225 | 37016 ft | 480 kts | 140° |
| 2026-05-06 00:49 | 15.42429 | -72.75582 | 37014 ft | 480 kts | 140° |
| 2026-05-06 00:49 | 15.37483 | -72.70941 | 37011 ft | 480 kts | 140° |
| 2026-05-06 00:50 | 15.32536 | -72.66295 | 37011 ft | 479 kts | 140° |
| 2026-05-06 00:50 | 15.27595 | -72.61660 | 37004 ft | 479 kts | 140° |
| 2026-05-06 00:51 | 15.22656 | -72.57037 | 37009 ft | 478 kts | 140° |
| 2026-05-06 00:51 | 15.17719 | -72.52422 | 37011 ft | 478 kts | 140° |
| 2026-05-06 00:52 | 15.12783 | -72.47813 | 37011 ft | 478 kts | 140° |
| 2026-05-06 00:52 | 15.07850 | -72.43199 | 37005 ft | 478 kts | 140° |
| 2026-05-06 00:53 | 15.02923 | -72.38590 | 37008 ft | 478 kts | 140° |
| 2026-05-06 00:53 | 14.97993 | -72.33987 | 37007 ft | 478 kts | 140° |
| 2026-05-06 00:54 | 14.93062 | -72.29386 | 36993 ft | 477 kts | 140° |
| 2026-05-06 00:54 | 14.88126 | -72.24794 | 36991 ft | 477 kts | 140° |
| 2026-05-06 00:55 | 14.83224 | -72.20229 | 36992 ft | 478 kts | 140° |
| 2026-05-06 00:55 | 14.78292 | -72.15631 | 36992 ft | 478 kts | 140° |
| 2026-05-06 00:56 | 14.73357 | -72.11035 | 36995 ft | 478 kts | 140° |
| 2026-05-06 00:56 | 14.68415 | -72.06437 | 36999 ft | 478 kts | 140° |
| 2026-05-06 00:57 | 14.63477 | -72.01842 | 36999 ft | 478 kts | 140° |
| 2026-05-06 00:57 | 14.58535 | -71.97253 | 37001 ft | 478 kts | 140° |
| 2026-05-06 00:58 | 14.53590 | -71.92671 | 36996 ft | 478 kts | 140° |
| 2026-05-06 00:58 | 14.48652 | -71.88085 | 36996 ft | 478 kts | 140° |
| 2026-05-06 00:59 | 14.43705 | -71.83491 | 36997 ft | 478 kts | 140° |
| 2026-05-06 00:59 | 14.38761 | -71.78915 | 36996 ft | 478 kts | 140° |
| 2026-05-06 01:00 | 14.33813 | -71.74338 | 36994 ft | 477 kts | 140° |
| 2026-05-06 01:00 | 14.28867 | -71.69762 | 36995 ft | 477 kts | 140° |
| 2026-05-06 01:01 | 14.23960 | -71.65222 | 36996 ft | 477 kts | 140° |
| 2026-05-06 01:01 | 14.19018 | -71.60648 | 36986 ft | 478 kts | 140° |
| 2026-05-06 01:02 | 14.14067 | -71.56074 | 36984 ft | 478 kts | 140° |
| 2026-05-06 01:02 | 14.09114 | -71.51505 | 36992 ft | 478 kts | 140° |
| 2026-05-06 01:03 | 14.04167 | -71.46944 | 36995 ft | 477 kts | 140° |
| 2026-05-06 01:03 | 13.99226 | -71.42390 | 36987 ft | 477 kts | 140° |
| 2026-05-06 01:04 | 13.94279 | -71.37828 | 36996 ft | 476 kts | 140° |
| 2026-05-06 01:04 | 13.89353 | -71.33288 | 36997 ft | 475 kts | 140° |
| 2026-05-06 01:05 | 13.84438 | -71.28772 | 37003 ft | 473 kts | 140° |
| 2026-05-06 01:05 | 13.81984 | -71.26517 | 36539 ft | 475 kts | 140° |
| 2026-05-06 01:05 | 13.79487 | -71.24223 | 35479 ft | 486 kts | 140° |
| 2026-05-06 01:05 | 13.76952 | -71.21893 | 34689 ft | 491 kts | 140° |
| 2026-05-06 01:06 | 13.74403 | -71.19550 | 33963 ft | 493 kts | 141° |
| 2026-05-06 01:06 | 13.71838 | -71.17191 | 33017 ft | 497 kts | 140° |
| 2026-05-06 01:06 | 13.69247 | -71.14810 | 32078 ft | 502 kts | 139° |
| 2026-05-06 01:06 | 13.66643 | -71.12417 | 31275 ft | 502 kts | 139° |
| 2026-05-06 01:07 | 13.64042 | -71.10028 | 30026 ft | 500 kts | 139° |
| 2026-05-06 01:07 | 13.61440 | -71.07642 | 28221 ft | 503 kts | 138° |
| 2026-05-06 01:07 | 13.58824 | -71.05240 | 26693 ft | 503 kts | 137° |
| 2026-05-06 01:07 | 13.57103 | -71.03661 | 25804 ft | 500 kts | 137° |
| 2026-05-06 01:08 | 13.54529 | -71.01300 | 24568 ft | 492 kts | 136° |
| 2026-05-06 01:08 | 13.51993 | -70.98977 | 23355 ft | 485 kts | 136° |
| 2026-05-06 01:08 | 13.49499 | -70.96697 | 22077 ft | 474 kts | 136° |
| 2026-05-06 01:08 | 13.46294 | -70.93769 | 20620 ft | 456 kts | 136° |
| 2026-05-06 01:09 | 13.44706 | -70.92320 | 19917 ft | 446 kts | 137° |
| 2026-05-06 01:09 | 13.42430 | -70.90240 | 18922 ft | 431 kts | 137° |
| 2026-05-06 01:09 | 13.40228 | -70.88220 | 17961 ft | 417 kts | 137° |
| 2026-05-06 01:09 | 13.38118 | -70.86283 | 17450 ft | 397 kts | 137° |
| 2026-05-06 01:10 | 13.36070 | -70.84404 | 17199 ft | 393 kts | 137° |
| 2026-05-06 01:10 | 13.34053 | -70.82556 | 16749 ft | 386 kts | 137° |
| 2026-05-06 01:10 | 13.32086 | -70.80756 | 16181 ft | 382 kts | 136° |
| 2026-05-06 01:10 | 13.30113 | -70.78950 | 15635 ft | 378 kts | 136° |
| 2026-05-06 01:11 | 13.28158 | -70.77162 | 15068 ft | 375 kts | 136° |
| 2026-05-06 01:11 | 13.26219 | -70.75391 | 14478 ft | 372 kts | 136° |
| 2026-05-06 01:11 | 13.24295 | -70.73634 | 13912 ft | 369 kts | 136° |
| 2026-05-06 01:11 | 13.22387 | -70.71892 | 13283 ft | 366 kts | 136° |
| 2026-05-06 01:12 | 13.20499 | -70.70169 | 12698 ft | 361 kts | 136° |
| 2026-05-06 01:12 | 13.18636 | -70.68470 | 12112 ft | 356 kts | 136° |
| 2026-05-06 01:12 | 13.16795 | -70.66791 | 11545 ft | 352 kts | 136° |
| 2026-05-06 01:12 | 13.14972 | -70.65127 | 10971 ft | 348 kts | 136° |
| 2026-05-06 01:13 | 13.13187 | -70.63499 | 10699 ft | 336 kts | 136° |
| 2026-05-06 01:13 | 13.11482 | -70.61945 | 10590 ft | 320 kts | 136° |
| 2026-05-06 01:13 | 13.09850 | -70.60459 | 10464 ft | 307 kts | 136° |
| 2026-05-06 01:13 | 13.08285 | -70.59032 | 10363 ft | 295 kts | 136° |
| 2026-05-06 01:14 | 13.05319 | -70.56319 | 10117 ft | 278 kts | 136° |
| 2026-05-06 01:14 | 13.03883 | -70.55008 | 10027 ft | 274 kts | 135° |
| 2026-05-06 01:14 | 13.02460 | -70.53715 | 9856 ft | 275 kts | 137° |
| 2026-05-06 01:15 | 13.01016 | -70.52406 | 9623 ft | 278 kts | 137° |
| 2026-05-06 01:15 | 12.99573 | -70.51095 | 9390 ft | 275 kts | 137° |
| 2026-05-06 01:15 | 12.98145 | -70.49795 | 9177 ft | 275 kts | 136° |
| 2026-05-06 01:15 | 12.96724 | -70.48500 | 8962 ft | 270 kts | 136° |
| 2026-05-06 01:16 | 12.95325 | -70.47230 | 8741 ft | 266 kts | 136° |
| 2026-05-06 01:16 | 12.93940 | -70.45976 | 8544 ft | 264 kts | 136° |
| 2026-05-06 01:16 | 12.92567 | -70.44733 | 8341 ft | 265 kts | 137° |
| 2026-05-06 01:16 | 12.91171 | -70.43465 | 8134 ft | 270 kts | 137° |
| 2026-05-06 01:17 | 12.89768 | -70.42190 | 7925 ft | 268 kts | 137° |
| 2026-05-06 01:17 | 12.88375 | -70.40924 | 7707 ft | 267 kts | 137° |
| 2026-05-06 01:17 | 12.86991 | -70.39671 | 7492 ft | 263 kts | 136° |
| 2026-05-06 01:17 | 12.85632 | -70.38442 | 7290 ft | 259 kts | 136° |
| 2026-05-06 01:18 | 12.84288 | -70.37225 | 7084 ft | 258 kts | 137° |
| 2026-05-06 01:18 | 12.82935 | -70.35996 | 6883 ft | 261 kts | 137° |
| 2026-05-06 01:18 | 12.81572 | -70.34761 | 6679 ft | 261 kts | 137° |
| 2026-05-06 01:18 | 12.80211 | -70.33526 | 6468 ft | 261 kts | 137° |
| 2026-05-06 01:19 | 12.78860 | -70.32301 | 6261 ft | 257 kts | 136° |
| 2026-05-06 01:19 | 12.77529 | -70.31097 | 6047 ft | 253 kts | 137° |
| 2026-05-06 01:19 | 12.76208 | -70.29902 | 5849 ft | 252 kts | 136° |
| 2026-05-06 01:19 | 12.74900 | -70.28716 | 5656 ft | 254 kts | 137° |
| 2026-05-06 01:20 | 12.73570 | -70.27511 | 5452 ft | 255 kts | 136° |
| 2026-05-06 01:20 | 12.72242 | -70.26310 | 5252 ft | 255 kts | 136° |
| 2026-05-06 01:20 | 12.70917 | -70.25110 | 5048 ft | 252 kts | 135° |
| 2026-05-06 01:20 | 12.69631 | -70.23943 | 4842 ft | 249 kts | 136° |
| 2026-05-06 01:21 | 12.68326 | -70.22759 | 4658 ft | 250 kts | 136° |
| 2026-05-06 01:21 | 12.67052 | -70.21609 | 4446 ft | 237 kts | 135° |
| 2026-05-06 01:21 | 12.65825 | -70.20576 | 4276 ft | 222 kts | 144° |
| 2026-05-06 01:21 | 12.64430 | -70.19998 | 4103 ft | 215 kts | 164° |
| 2026-05-06 01:22 | 12.62915 | -70.19966 | 3933 ft | 223 kts | 184° |
| 2026-05-06 01:22 | 12.61382 | -70.20333 | 3767 ft | 227 kts | 187° |
| 2026-05-06 01:22 | 12.59875 | -70.20711 | 3594 ft | 220 kts | 187° |
| 2026-05-06 01:22 | 12.58409 | -70.20997 | 3435 ft | 207 kts | 175° |
| 2026-05-06 01:23 | 12.57061 | -70.20856 | 3387 ft | 186 kts | 157° |
| 2026-05-06 01:23 | 12.55911 | -70.20364 | 3281 ft | 175 kts | 141° |
| 2026-05-06 01:23 | 12.54983 | -70.19596 | 3142 ft | 171 kts | 128° |
| 2026-05-06 01:23 | 12.54312 | -70.18610 | 2983 ft | 167 kts | 114° |
| 2026-05-06 01:24 | 12.53948 | -70.17528 | 2794 ft | 158 kts | 102° |
| 2026-05-06 01:24 | 12.53690 | -70.16448 | 2600 ft | 154 kts | 102° |
| 2026-05-06 01:24 | 12.53438 | -70.15390 | 2424 ft | 150 kts | 102° |
| 2026-05-06 01:24 | 12.53192 | -70.14353 | 2232 ft | 149 kts | 102° |
| 2026-05-06 01:25 | 12.52948 | -70.13330 | 2027 ft | 145 kts | 102° |
| 2026-05-06 01:25 | 12.52719 | -70.12369 | 1835 ft | 136 kts | 101° |
| 2026-05-06 01:25 | 12.52500 | -70.11446 | 1670 ft | 132 kts | 101° |
| 2026-05-06 01:25 | 12.52284 | -70.10539 | 1500 ft | 130 kts | 102° |
| 2026-05-06 01:26 | 12.52072 | -70.09642 | 1345 ft | 130 kts | 102° |
| 2026-05-06 01:26 | 12.51854 | -70.08748 | 1168 ft | 129 kts | 101° |
| 2026-05-06 01:26 | 12.51636 | -70.07854 | 974 ft | 128 kts | 101° |
| 2026-05-06 01:26 | 12.51423 | -70.06971 | 878 ft | 128 kts | 101° |
| 2026-05-06 01:27 | 12.51208 | -70.06083 | 702 ft | 130 kts | 102° |
| 2026-05-06 01:27 | 12.50997 | -70.05201 | 534 ft | 131 kts | 103° |
| 2026-05-06 01:27 | 12.50808 | -70.04319 | 402 ft | 126 kts | 101° |
| 2026-05-06 01:27 | 12.50586 | -70.03431 | 212 ft | 131 kts | 101° |
| 2026-05-06 01:28 | 12.50375 | -70.02535 | 46 ft | 128 kts | 99° |
| 2026-05-06 01:28 | 12.50196 | -70.01761 | 41 ft | 90 kts | 103° |
| 2026-05-06 01:28 | 12.50087 | -70.01314 | 48 ft | 40 kts | 103° |
| 2026-05-06 01:28 | 12.50048 | -70.01139 | 48 ft | 14 kts | 103° |
| 2026-05-06 01:29 | 12.50028 | -70.01047 | 50 ft | 10 kts | 92° |
| 2026-05-06 01:29 | 12.50079 | -70.01008 | 50 ft | 11 kts | 19° |
| 2026-05-06 01:29 | 12.50160 | -70.00990 | 48 ft | 12 kts | 14° |
| 2026-05-06 01:29 | 12.50228 | -70.00963 | 47 ft | 8 kts | 31° |
| 2026-05-06 01:30 | 12.50234 | -70.00938 | 47 ft | 4 kts | 94° |
| 2026-05-06 01:30 | 12.50225 | -70.00907 | 45 ft | 0 kts | 109° |
| 2026-05-06 01:30 | 12.50221 | -70.00896 | 45 ft | 3 kts | 105° |
| 2026-05-06 01:30 | 12.50234 | -70.00883 | 47 ft | 4 kts | 32° |
| 2026-05-06 01:31 | 12.50265 | -70.00877 | 46 ft | 5 kts | 14° |
| 2026-05-06 01:31 | 12.50286 | -70.00872 | 46 ft | 2 kts | 13° |
| 2026-05-06 01:31 | 12.50294 | -70.00870 | 46 ft | 0 kts | 13° |